sensor_id;sensor_type;location;lat;lon;timestamp;pressure;altitude;pressure_sealevel;temperature;humidity
43480;BME280;29067;35.492;-97.520;2022-10-23T00:01:45;95805.64;;;30.33;16.78
43480;BME280;29067;35.492;-97.520;2022-10-23T00:04:24;95806.55;;;29.28;17.24
43480;BME280;29067;35.492;-97.520;2022-10-23T00:06:53;95822.61;;;27.43;17.91
43480;BME280;29067;35.492;-97.520;2022-10-23T00:09:22;95825.98;;;28.69;17.43
43480;BME280;29067;35.492;-97.520;2022-10-23T00:11:51;95831.09;;;28.73;17.23
43480;BME280;29067;35.492;-97.520;2022-10-23T00:14:22;95837.97;;;29.44;17.15
43480;BME280;29067;35.492;-97.520;2022-10-23T00:16:50;95842.74;;;29.92;17.11
43480;BME280;29067;35.492;-97.520;2022-10-23T00:19:18;95850.57;;;29.26;17.24
43480;BME280;29067;35.492;-97.520;2022-10-23T00:21:47;95860.88;;;26.47;19.16
43480;BME280;29067;35.492;-97.520;2022-10-23T00:24:15;95870.82;;;27.04;20.73
43480;BME280;29067;35.492;-97.520;2022-10-23T00:26:42;95864.50;;;27.67;21.54
43480;BME280;29067;35.492;-97.520;2022-10-23T00:29:11;95875.77;;;27.79;22.49
43480;BME280;29067;35.492;-97.520;2022-10-23T00:31:39;95874.10;;;27.31;23.78
43480;BME280;29067;35.492;-97.520;2022-10-23T00:34:06;95883.20;;;28.87;24.01
43480;BME280;29067;35.492;-97.520;2022-10-23T00:36:35;95879.31;;;27.41;24.96
43480;BME280;29067;35.492;-97.520;2022-10-23T00:39:03;95890.14;;;27.79;25.41
43480;BME280;29067;35.492;-97.520;2022-10-23T00:41:31;95894.27;;;26.14;27.85
43480;BME280;29067;35.492;-97.520;2022-10-23T00:44:04;95893.76;;;27.53;27.32
43480;BME280;29067;35.492;-97.520;2022-10-23T00:46:34;95904.59;;;26.24;28.56
43480;BME280;29067;35.492;-97.520;2022-10-23T00:49:03;95907.59;;;26.23;28.68
43480;BME280;29067;35.492;-97.520;2022-10-23T00:51:35;95906.76;;;26.65;28.48
43480;BME280;29067;35.492;-97.520;2022-10-23T00:54:05;95904.46;;;25.59;29.21
43480;BME280;29067;35.492;-97.520;2022-10-23T00:56:35;95904.08;;;25.34;30.11
43480;BME280;29067;35.492;-97.520;2022-10-23T00:59:05;95909.52;;;25.02;30.24
43480;BME280;29067;35.492;-97.520;2022-10-23T01:01:33;95912.24;;;25.94;29.68
43480;BME280;29067;35.492;-97.520;2022-10-23T01:04:04;95916.26;;;24.73;30.33
43480;BME280;29067;35.492;-97.520;2022-10-23T01:06:44;95922.30;;;24.66;30.64
43480;BME280;29067;35.492;-97.520;2022-10-23T01:09:20;95915.22;;;24.64;30.43
43480;BME280;29067;35.492;-97.520;2022-10-23T01:11:54;95921.82;;;25.02;30.44
43480;BME280;29067;35.492;-97.520;2022-10-23T01:14:30;95918.79;;;24.22;31.01
43480;BME280;29067;35.492;-97.520;2022-10-23T01:17:04;95916.81;;;23.98;30.40
43480;BME280;29067;35.492;-97.520;2022-10-23T01:19:43;95920.13;;;23.72;30.84
43480;BME280;29067;35.492;-97.520;2022-10-23T01:22:27;95928.22;;;24.83;30.42
43480;BME280;29067;35.492;-97.520;2022-10-23T01:25:03;95936.24;;;24.50;30.52
43480;BME280;29067;35.492;-97.520;2022-10-23T01:27:41;95935.49;;;24.32;30.59
43480;BME280;29067;35.492;-97.520;2022-10-23T01:30:16;95939.23;;;23.54;31.25
43480;BME280;29067;35.492;-97.520;2022-10-23T01:32:47;95947.55;;;24.24;30.72
43480;BME280;29067;35.492;-97.520;2022-10-23T01:35:18;95941.30;;;23.64;31.15
43480;BME280;29067;35.492;-97.520;2022-10-23T01:37:53;95944.09;;;24.27;31.35
43480;BME280;29067;35.492;-97.520;2022-10-23T01:40:26;95945.15;;;24.10;31.03
43480;BME280;29067;35.492;-97.520;2022-10-23T01:43:02;95948.57;;;23.35;31.18
43480;BME280;29067;35.492;-97.520;2022-10-23T01:45:35;95947.43;;;24.22;31.04
43480;BME280;29067;35.492;-97.520;2022-10-23T01:48:07;95949.15;;;22.88;31.55
43480;BME280;29067;35.492;-97.520;2022-10-23T01:50:43;95949.60;;;22.96;31.61
43480;BME280;29067;35.492;-97.520;2022-10-23T01:53:18;95957.47;;;25.01;30.83
43480;BME280;29067;35.492;-97.520;2022-10-23T01:55:48;95961.22;;;24.30;30.75
43480;BME280;29067;35.492;-97.520;2022-10-23T01:58:17;95968.65;;;23.85;31.37
43480;BME280;29067;35.492;-97.520;2022-10-23T02:00:46;95962.89;;;23.39;31.76
43480;BME280;29067;35.492;-97.520;2022-10-23T02:03:16;95969.58;;;23.21;32.26
43480;BME280;29067;35.492;-97.520;2022-10-23T02:05:45;95989.70;;;22.48;32.88
43480;BME280;29067;35.492;-97.520;2022-10-23T02:08:13;95977.49;;;22.81;33.31
43480;BME280;29067;35.492;-97.520;2022-10-23T02:10:46;95983.97;;;23.17;33.47
43480;BME280;29067;35.492;-97.520;2022-10-23T02:13:26;95980.78;;;22.63;33.50
43480;BME280;29067;35.492;-97.520;2022-10-23T02:16:02;95986.95;;;22.73;34.39
43480;BME280;29067;35.492;-97.520;2022-10-23T02:18:37;95982.65;;;23.50;33.95
43480;BME280;29067;35.492;-97.520;2022-10-23T02:21:11;95986.36;;;22.95;34.59
43480;BME280;29067;35.492;-97.520;2022-10-23T02:23:46;95986.48;;;22.35;35.29
43480;BME280;29067;35.492;-97.520;2022-10-23T02:26:23;95985.27;;;22.75;34.78
43480;BME280;29067;35.492;-97.520;2022-10-23T02:28:54;95979.49;;;23.15;35.02
43480;BME280;29067;35.492;-97.520;2022-10-23T02:31:24;95987.60;;;21.74;36.39
43480;BME280;29067;35.492;-97.520;2022-10-23T02:33:58;95989.04;;;22.29;36.04
43480;BME280;29067;35.492;-97.520;2022-10-23T02:36:25;95986.05;;;22.11;36.31
43480;BME280;29067;35.492;-97.520;2022-10-23T02:38:53;95986.90;;;21.64;36.75
43480;BME280;29067;35.492;-97.520;2022-10-23T02:41:34;95986.42;;;22.01;36.50
43480;BME280;29067;35.492;-97.520;2022-10-23T02:44:16;95989.47;;;21.48;37.09
43480;BME280;29067;35.492;-97.520;2022-10-23T02:46:52;95990.03;;;21.66;37.06
43480;BME280;29067;35.492;-97.520;2022-10-23T02:49:26;95996.60;;;22.60;36.40
43480;BME280;29067;35.492;-97.520;2022-10-23T02:52:05;95994.65;;;22.40;36.14
43480;BME280;29067;35.492;-97.520;2022-10-23T02:54:45;96007.69;;;22.07;36.91
43480;BME280;29067;35.492;-97.520;2022-10-23T02:57:22;96005.24;;;22.13;37.85
43480;BME280;29067;35.492;-97.520;2022-10-23T03:00:03;95993.24;;;21.61;37.60
43480;BME280;29067;35.492;-97.520;2022-10-23T03:02:36;96007.98;;;21.57;37.76
43480;BME280;29067;35.492;-97.520;2022-10-23T03:05:09;96013.21;;;20.52;39.57
43480;BME280;29067;35.492;-97.520;2022-10-23T03:07:39;96000.18;;;21.04;38.80
43480;BME280;29067;35.492;-97.520;2022-10-23T03:10:09;96008.96;;;20.66;39.69
43480;BME280;29067;35.492;-97.520;2022-10-23T03:12:37;96012.31;;;21.33;39.15
43480;BME280;29067;35.492;-97.520;2022-10-23T03:15:06;96008.78;;;20.93;38.64
43480;BME280;29067;35.492;-97.520;2022-10-23T03:17:34;96016.25;;;20.94;39.58
43480;BME280;29067;35.492;-97.520;2022-10-23T03:20:02;96025.43;;;20.40;40.15
43480;BME280;29067;35.492;-97.520;2022-10-23T03:22:30;96022.51;;;21.24;39.98
43480;BME280;29067;35.492;-97.520;2022-10-23T03:24:58;96026.12;;;21.29;39.55
43480;BME280;29067;35.492;-97.520;2022-10-23T03:27:26;96027.54;;;21.00;39.84
43480;BME280;29067;35.492;-97.520;2022-10-23T03:29:54;96029.85;;;21.18;39.67
43480;BME280;29067;35.492;-97.520;2022-10-23T03:32:28;96037.35;;;21.22;40.11
43480;BME280;29067;35.492;-97.520;2022-10-23T03:34:56;96032.28;;;20.77;40.19
43480;BME280;29067;35.492;-97.520;2022-10-23T03:37:24;96039.28;;;21.01;40.06
43480;BME280;29067;35.492;-97.520;2022-10-23T03:39:52;96034.52;;;21.19;39.49
43480;BME280;29067;35.492;-97.520;2022-10-23T03:42:19;96045.99;;;21.49;39.55
43480;BME280;29067;35.492;-97.520;2022-10-23T03:44:47;96046.35;;;20.62;39.91
43480;BME280;29067;35.492;-97.520;2022-10-23T03:47:15;96043.01;;;22.03;38.92
43480;BME280;29067;35.492;-97.520;2022-10-23T03:49:43;96047.71;;;20.97;39.19
43480;BME280;29067;35.492;-97.520;2022-10-23T03:52:11;96043.33;;;21.70;39.37
43480;BME280;29067;35.492;-97.520;2022-10-23T03:54:45;96053.68;;;19.96;40.58
43480;BME280;29067;35.492;-97.520;2022-10-23T03:57:13;96057.74;;;21.51;39.64
43480;BME280;29067;35.492;-97.520;2022-10-23T03:59:40;96060.97;;;21.22;39.89
43480;BME280;29067;35.492;-97.520;2022-10-23T04:02:08;96053.58;;;21.04;40.46
43480;BME280;29067;35.492;-97.520;2022-10-23T04:04:37;96068.67;;;20.30;40.24
43480;BME280;29067;35.492;-97.520;2022-10-23T04:07:05;96072.40;;;20.73;40.27
43480;BME280;29067;35.492;-97.520;2022-10-23T04:09:33;96071.59;;;21.40;39.56
43480;BME280;29067;35.492;-97.520;2022-10-23T04:12:01;96075.66;;;20.58;40.38
43480;BME280;29067;35.492;-97.520;2022-10-23T04:14:28;96074.22;;;20.53;40.40
43480;BME280;29067;35.492;-97.520;2022-10-23T04:16:57;96077.58;;;20.96;39.50
43480;BME280;29067;35.492;-97.520;2022-10-23T04:19:31;96078.90;;;20.70;40.25
43480;BME280;29067;35.492;-97.520;2022-10-23T04:21:59;96070.11;;;21.33;39.59
43480;BME280;29067;35.492;-97.520;2022-10-23T04:24:27;96074.22;;;21.40;39.43
43480;BME280;29067;35.492;-97.520;2022-10-23T04:26:55;96072.94;;;21.63;38.99
43480;BME280;29067;35.492;-97.520;2022-10-23T04:29:23;96079.78;;;20.90;39.27
43480;BME280;29067;35.492;-97.520;2022-10-23T04:31:50;96078.83;;;21.03;39.63
43480;BME280;29067;35.492;-97.520;2022-10-23T04:34:19;96069.67;;;20.54;40.32
43480;BME280;29067;35.492;-97.520;2022-10-23T04:36:46;96076.05;;;21.82;39.81
43480;BME280;29067;35.492;-97.520;2022-10-23T04:39:14;96079.53;;;20.86;40.37
43480;BME280;29067;35.492;-97.520;2022-10-23T04:41:41;96072.10;;;20.66;40.56
43480;BME280;29067;35.492;-97.520;2022-10-23T04:44:09;96072.08;;;20.57;40.13
43480;BME280;29067;35.492;-97.520;2022-10-23T04:46:37;96072.13;;;21.72;39.12
43480;BME280;29067;35.492;-97.520;2022-10-23T04:49:05;96079.92;;;20.50;40.10
43480;BME280;29067;35.492;-97.520;2022-10-23T04:51:34;96075.85;;;22.21;38.90
43480;BME280;29067;35.492;-97.520;2022-10-23T04:54:02;96085.92;;;20.67;40.30
43480;BME280;29067;35.492;-97.520;2022-10-23T04:56:30;96083.39;;;19.27;41.39
43480;BME280;29067;35.492;-97.520;2022-10-23T04:58:58;96073.55;;;21.12;39.63
43480;BME280;29067;35.492;-97.520;2022-10-23T05:01:26;96077.75;;;20.73;39.90
43480;BME280;29067;35.492;-97.520;2022-10-23T05:03:54;96078.76;;;20.93;39.96
43480;BME280;29067;35.492;-97.520;2022-10-23T05:06:22;96077.58;;;20.92;39.21
43480;BME280;29067;35.492;-97.520;2022-10-23T05:08:49;96080.72;;;20.04;40.62
43480;BME280;29067;35.492;-97.520;2022-10-23T05:11:17;96080.20;;;20.27;40.41
43480;BME280;29067;35.492;-97.520;2022-10-23T05:13:45;96085.55;;;20.17;40.51
43480;BME280;29067;35.492;-97.520;2022-10-23T05:16:25;96082.38;;;20.69;40.35
43480;BME280;29067;35.492;-97.520;2022-10-23T05:18:55;96078.81;;;21.25;39.39
43480;BME280;29067;35.492;-97.520;2022-10-23T05:21:27;96079.94;;;20.04;40.19
43480;BME280;29067;35.492;-97.520;2022-10-23T05:23:57;96072.34;;;20.58;40.49
43480;BME280;29067;35.492;-97.520;2022-10-23T05:26:25;96080.06;;;20.52;40.21
43480;BME280;29067;35.492;-97.520;2022-10-23T05:28:52;96078.22;;;20.51;40.09
43480;BME280;29067;35.492;-97.520;2022-10-23T05:31:21;96093.77;;;21.44;39.69
43480;BME280;29067;35.492;-97.520;2022-10-23T05:33:51;96084.92;;;19.40;41.39
43480;BME280;29067;35.492;-97.520;2022-10-23T05:36:20;96094.22;;;19.95;40.70
43480;BME280;29067;35.492;-97.520;2022-10-23T05:38:48;96086.46;;;20.09;41.76
43480;BME280;29067;35.492;-97.520;2022-10-23T05:41:17;96087.37;;;20.05;41.76
43480;BME280;29067;35.492;-97.520;2022-10-23T05:43:45;96092.17;;;20.69;40.54
43480;BME280;29067;35.492;-97.520;2022-10-23T05:46:13;96089.54;;;19.48;41.80
43480;BME280;29067;35.492;-97.520;2022-10-23T05:48:41;96088.66;;;20.43;41.36
43480;BME280;29067;35.492;-97.520;2022-10-23T05:51:10;96083.92;;;21.33;40.46
43480;BME280;29067;35.492;-97.520;2022-10-23T05:53:38;96083.29;;;20.34;41.05
43480;BME280;29067;35.492;-97.520;2022-10-23T05:56:06;96077.75;;;20.44;40.80
43480;BME280;29067;35.492;-97.520;2022-10-23T05:58:34;96082.28;;;20.60;40.19
43480;BME280;29067;35.492;-97.520;2022-10-23T06:01:05;96080.10;;;20.18;41.13
43480;BME280;29067;35.492;-97.520;2022-10-23T06:03:33;96083.00;;;19.98;40.89
43480;BME280;29067;35.492;-97.520;2022-10-23T06:06:07;96081.39;;;21.01;40.31
43480;BME280;29067;35.492;-97.520;2022-10-23T06:08:35;96086.98;;;20.03;40.78
43480;BME280;29067;35.492;-97.520;2022-10-23T06:11:07;96078.37;;;20.16;41.83
43480;BME280;29067;35.492;-97.520;2022-10-23T06:13:36;96085.28;;;20.12;41.91
43480;BME280;29067;35.492;-97.520;2022-10-23T06:16:13;96086.36;;;19.65;41.79
43480;BME280;29067;35.492;-97.520;2022-10-23T06:18:47;96082.50;;;20.51;41.53
43480;BME280;29067;35.492;-97.520;2022-10-23T06:21:16;96088.85;;;20.41;41.62
43480;BME280;29067;35.492;-97.520;2022-10-23T06:23:45;96095.96;;;20.56;40.91
43480;BME280;29067;35.492;-97.520;2022-10-23T06:26:15;96097.81;;;21.02;41.05
43480;BME280;29067;35.492;-97.520;2022-10-23T06:28:44;96087.57;;;19.94;41.68
43480;BME280;29067;35.492;-97.520;2022-10-23T06:31:14;96092.27;;;21.22;40.30
43480;BME280;29067;35.492;-97.520;2022-10-23T06:33:42;96091.82;;;19.98;41.33
43480;BME280;29067;35.492;-97.520;2022-10-23T06:36:10;96090.29;;;19.73;41.86
43480;BME280;29067;35.492;-97.520;2022-10-23T06:38:38;96091.25;;;19.04;42.00
43480;BME280;29067;35.492;-97.520;2022-10-23T06:41:12;96089.79;;;20.00;41.14
43480;BME280;29067;35.492;-97.520;2022-10-23T06:43:41;96095.07;;;19.87;41.12
43480;BME280;29067;35.492;-97.520;2022-10-23T06:46:09;96093.82;;;19.57;41.79
43480;BME280;29067;35.492;-97.520;2022-10-23T06:48:37;96100.39;;;19.42;41.87
43480;BME280;29067;35.492;-97.520;2022-10-23T06:51:07;96102.17;;;20.50;40.86
43480;BME280;29067;35.492;-97.520;2022-10-23T06:53:36;96095.81;;;19.59;41.29
43480;BME280;29067;35.492;-97.520;2022-10-23T06:56:06;96095.25;;;20.11;41.14
43480;BME280;29067;35.492;-97.520;2022-10-23T06:58:35;96109.13;;;19.62;42.21
43480;BME280;29067;35.492;-97.520;2022-10-23T07:01:05;96094.73;;;19.57;41.70
43480;BME280;29067;35.492;-97.520;2022-10-23T07:03:33;96095.38;;;20.05;41.13
43480;BME280;29067;35.492;-97.520;2022-10-23T07:06:02;96108.47;;;19.58;41.75
43480;BME280;29067;35.492;-97.520;2022-10-23T07:08:31;96102.79;;;19.63;42.04
43480;BME280;29067;35.492;-97.520;2022-10-23T07:11:02;96119.08;;;19.88;41.86
43480;BME280;29067;35.492;-97.520;2022-10-23T07:13:31;96105.41;;;19.38;41.79
43480;BME280;29067;35.492;-97.520;2022-10-23T07:16:08;96102.68;;;19.90;41.09
43480;BME280;29067;35.492;-97.520;2022-10-23T07:18:37;96112.01;;;21.08;40.41
43480;BME280;29067;35.492;-97.520;2022-10-23T07:21:05;96103.61;;;21.83;38.59
43480;BME280;29067;35.492;-97.520;2022-10-23T07:23:33;96110.82;;;20.48;40.33
43480;BME280;29067;35.492;-97.520;2022-10-23T07:26:06;96115.89;;;20.42;40.30
43480;BME280;29067;35.492;-97.520;2022-10-23T07:28:34;96115.41;;;20.16;39.99
43480;BME280;29067;35.492;-97.520;2022-10-23T07:31:03;96120.40;;;19.52;40.43
43480;BME280;29067;35.492;-97.520;2022-10-23T07:33:31;96116.19;;;20.08;40.24
43480;BME280;29067;35.492;-97.520;2022-10-23T07:35:59;96118.70;;;19.21;40.96
43480;BME280;29067;35.492;-97.520;2022-10-23T07:38:27;96123.84;;;19.96;41.13
43480;BME280;29067;35.492;-97.520;2022-10-23T07:40:56;96114.52;;;19.81;40.88
43480;BME280;29067;35.492;-97.520;2022-10-23T07:43:24;96107.84;;;20.82;39.84
43480;BME280;29067;35.492;-97.520;2022-10-23T07:45:54;96108.21;;;19.87;41.13
43480;BME280;29067;35.492;-97.520;2022-10-23T07:48:22;96115.52;;;19.04;42.06
43480;BME280;29067;35.492;-97.520;2022-10-23T07:50:56;96111.32;;;20.18;40.00
43480;BME280;29067;35.492;-97.520;2022-10-23T07:53:25;96109.67;;;19.90;40.62
43480;BME280;29067;35.492;-97.520;2022-10-23T07:55:54;96100.96;;;20.14;40.93
43480;BME280;29067;35.492;-97.520;2022-10-23T07:58:24;96111.87;;;21.03;39.59
43480;BME280;29067;35.492;-97.520;2022-10-23T08:00:54;96107.59;;;20.68;39.83
43480;BME280;29067;35.492;-97.520;2022-10-23T08:03:31;96106.40;;;20.29;40.29
43480;BME280;29067;35.492;-97.520;2022-10-23T08:05:59;96107.20;;;20.18;39.77
43480;BME280;29067;35.492;-97.520;2022-10-23T08:08:27;96101.44;;;20.47;40.01
43480;BME280;29067;35.492;-97.520;2022-10-23T08:10:55;96108.39;;;19.48;40.25
43480;BME280;29067;35.492;-97.520;2022-10-23T08:13:23;96114.36;;;19.56;40.22
43480;BME280;29067;35.492;-97.520;2022-10-23T08:15:52;96108.39;;;20.50;39.77
43480;BME280;29067;35.492;-97.520;2022-10-23T08:18:20;96109.03;;;20.54;39.37
43480;BME280;29067;35.492;-97.520;2022-10-23T08:20:59;96112.26;;;20.84;39.02
43480;BME280;29067;35.492;-97.520;2022-10-23T08:23:28;96117.44;;;20.99;39.18
43480;BME280;29067;35.492;-97.520;2022-10-23T08:25:57;96113.78;;;20.48;39.20
43480;BME280;29067;35.492;-97.520;2022-10-23T08:28:26;96114.28;;;20.75;38.48
43480;BME280;29067;35.492;-97.520;2022-10-23T08:31:06;96116.86;;;20.03;39.48
43480;BME280;29067;35.492;-97.520;2022-10-23T08:33:35;96122.27;;;19.90;40.04
43480;BME280;29067;35.492;-97.520;2022-10-23T08:36:03;96126.10;;;19.60;41.10
43480;BME280;29067;35.492;-97.520;2022-10-23T08:38:31;96120.35;;;19.64;40.52
43480;BME280;29067;35.492;-97.520;2022-10-23T08:40:59;96118.52;;;20.60;39.98
43480;BME280;29067;35.492;-97.520;2022-10-23T08:43:32;96105.67;;;20.50;39.64
43480;BME280;29067;35.492;-97.520;2022-10-23T08:46:06;96120.99;;;19.64;40.46
43480;BME280;29067;35.492;-97.520;2022-10-23T08:48:40;96129.53;;;20.42;39.65
43480;BME280;29067;35.492;-97.520;2022-10-23T08:51:15;96121.30;;;20.81;39.86
43480;BME280;29067;35.492;-97.520;2022-10-23T08:53:48;96123.18;;;19.50;41.58
43480;BME280;29067;35.492;-97.520;2022-10-23T08:56:23;96123.22;;;19.90;40.12
43480;BME280;29067;35.492;-97.520;2022-10-23T08:58:55;96130.50;;;20.68;39.51
43480;BME280;29067;35.492;-97.520;2022-10-23T09:01:35;96123.90;;;19.62;39.94
43480;BME280;29067;35.492;-97.520;2022-10-23T09:04:05;96121.93;;;20.58;39.63
43480;BME280;29067;35.492;-97.520;2022-10-23T09:06:38;96117.81;;;19.01;41.24
43480;BME280;29067;35.492;-97.520;2022-10-23T09:09:23;96124.53;;;19.51;41.28
43480;BME280;29067;35.492;-97.520;2022-10-23T09:11:58;96128.24;;;19.23;42.01
43480;BME280;29067;35.492;-97.520;2022-10-23T09:14:41;96122.91;;;18.50;42.54
43480;BME280;29067;35.492;-97.520;2022-10-23T09:17:19;96123.93;;;19.22;41.75
43480;BME280;29067;35.492;-97.520;2022-10-23T09:19:54;96122.89;;;18.83;42.31
43480;BME280;29067;35.492;-97.520;2022-10-23T09:22:26;96120.84;;;18.98;42.73
43480;BME280;29067;35.492;-97.520;2022-10-23T09:24:55;96136.59;;;18.90;42.84
43480;BME280;29067;35.492;-97.520;2022-10-23T09:27:23;96128.94;;;19.14;42.27
43480;BME280;29067;35.492;-97.520;2022-10-23T09:29:54;96132.05;;;20.18;41.05
43480;BME280;29067;35.492;-97.520;2022-10-23T09:32:33;96123.12;;;19.35;41.86
43480;BME280;29067;35.492;-97.520;2022-10-23T09:35:01;96119.64;;;19.69;41.71
43480;BME280;29067;35.492;-97.520;2022-10-23T09:37:31;96122.09;;;19.02;42.62
43480;BME280;29067;35.492;-97.520;2022-10-23T09:40:06;96126.46;;;18.77;43.33
43480;BME280;29067;35.492;-97.520;2022-10-23T09:42:50;96135.51;;;18.50;43.75
43480;BME280;29067;35.492;-97.520;2022-10-23T09:45:23;96131.53;;;18.52;43.77
43480;BME280;29067;35.492;-97.520;2022-10-23T09:48:04;96125.31;;;18.93;43.14
43480;BME280;29067;35.492;-97.520;2022-10-23T09:50:32;96129.38;;;18.99;42.88
43480;BME280;29067;35.492;-97.520;2022-10-23T09:53:04;96126.81;;;19.22;42.83
43480;BME280;29067;35.492;-97.520;2022-10-23T09:55:32;96133.18;;;19.32;43.00
43480;BME280;29067;35.492;-97.520;2022-10-23T09:58:00;96140.12;;;18.99;43.04
43480;BME280;29067;35.492;-97.520;2022-10-23T10:00:28;96144.27;;;18.72;43.40
43480;BME280;29067;35.492;-97.520;2022-10-23T10:02:58;96144.95;;;18.52;44.34
43480;BME280;29067;35.492;-97.520;2022-10-23T10:05:28;96149.81;;;18.66;43.72
43480;BME280;29067;35.492;-97.520;2022-10-23T10:08:02;96147.51;;;19.46;42.97
43480;BME280;29067;35.492;-97.520;2022-10-23T10:10:36;96146.19;;;18.14;46.12
43480;BME280;29067;35.492;-97.520;2022-10-23T10:13:17;96151.49;;;18.93;44.78
43480;BME280;29067;35.492;-97.520;2022-10-23T10:15:58;96145.90;;;18.60;45.29
43480;BME280;29067;35.492;-97.520;2022-10-23T10:18:34;96157.50;;;17.67;46.51
43480;BME280;29067;35.492;-97.520;2022-10-23T10:21:16;96150.92;;;18.75;46.07
43480;BME280;29067;35.492;-97.520;2022-10-23T10:23:52;96155.30;;;18.68;46.29
43480;BME280;29067;35.492;-97.520;2022-10-23T10:26:30;96160.39;;;19.25;45.63
43480;BME280;29067;35.492;-97.520;2022-10-23T10:29:15;96160.37;;;18.12;47.25
43480;BME280;29067;35.492;-97.520;2022-10-23T10:31:54;96163.83;;;18.06;46.82
43480;BME280;29067;35.492;-97.520;2022-10-23T10:34:32;96160.37;;;17.83;47.26
43480;BME280;29067;35.492;-97.520;2022-10-23T10:37:18;96162.49;;;17.41;47.72
43480;BME280;29067;35.492;-97.520;2022-10-23T10:40:02;96169.68;;;17.40;47.58
43480;BME280;29067;35.492;-97.520;2022-10-23T10:42:45;96167.58;;;18.11;48.03
43480;BME280;29067;35.492;-97.520;2022-10-23T10:45:25;96178.56;;;18.92;46.32
43480;BME280;29067;35.492;-97.520;2022-10-23T10:48:06;96176.67;;;17.58;48.18
43480;BME280;29067;35.492;-97.520;2022-10-23T10:50:43;96177.21;;;17.47;49.14
43480;BME280;29067;35.492;-97.520;2022-10-23T10:53:20;96179.16;;;17.58;49.42
43480;BME280;29067;35.492;-97.520;2022-10-23T10:55:53;96177.96;;;17.85;49.68
43480;BME280;29067;35.492;-97.520;2022-10-23T10:58:32;96175.71;;;17.18;50.17
43480;BME280;29067;35.492;-97.520;2022-10-23T11:03:08;96175.56;;;17.49;50.23
43480;BME280;29067;35.492;-97.520;2022-10-23T11:05:41;96179.92;;;18.06;50.22
43480;BME280;29067;35.492;-97.520;2022-10-23T11:08:14;96180.85;;;16.84;52.12
43480;BME280;29067;35.492;-97.520;2022-10-23T11:10:45;96188.92;;;17.02;52.32
43480;BME280;29067;35.492;-97.520;2022-10-23T11:13:23;96185.52;;;17.81;51.38
43480;BME280;29067;35.492;-97.520;2022-10-23T11:15:55;96185.91;;;15.90;55.96
43480;BME280;29067;35.492;-97.520;2022-10-23T11:18:26;96200.33;;;17.16;55.04
43480;BME280;29067;35.492;-97.520;2022-10-23T11:21:02;96204.43;;;16.38;56.81
43480;BME280;29067;35.492;-97.520;2022-10-23T11:23:47;96211.05;;;16.52;54.78
43480;BME280;29067;35.492;-97.520;2022-10-23T11:26:31;96199.40;;;17.84;54.50
43480;BME280;29067;35.492;-97.520;2022-10-23T11:29:51;96188.75;;;16.90;54.40
43480;BME280;29067;35.492;-97.520;2022-10-23T11:32:34;96192.62;;;17.75;52.96
43480;BME280;29067;35.492;-97.520;2022-10-23T11:35:18;96201.13;;;17.68;53.63
43480;BME280;29067;35.492;-97.520;2022-10-23T11:37:58;96214.67;;;16.60;55.60
43480;BME280;29067;35.492;-97.520;2022-10-23T11:40:26;96215.76;;;17.55;54.28
43480;BME280;29067;35.492;-97.520;2022-10-23T11:42:55;96213.74;;;16.50;56.69
43480;BME280;29067;35.492;-97.520;2022-10-23T11:45:34;96208.96;;;17.38;54.79
43480;BME280;29067;35.492;-97.520;2022-10-23T11:48:04;96210.37;;;18.11;53.50
43480;BME280;29067;35.492;-97.520;2022-10-23T11:50:48;96212.58;;;16.98;54.93
43480;BME280;29067;35.492;-97.520;2022-10-23T11:53:25;96225.72;;;16.76;56.69
43480;BME280;29067;35.492;-97.520;2022-10-23T11:56:04;96219.68;;;17.35;55.68
43480;BME280;29067;35.492;-97.520;2022-10-23T11:58:49;96216.08;;;16.23;58.28
43480;BME280;29067;35.492;-97.520;2022-10-23T12:01:28;96214.83;;;16.89;56.80
43480;BME280;29067;35.492;-97.520;2022-10-23T12:04:00;96212.81;;;16.72;56.50
43480;BME280;29067;35.492;-97.520;2022-10-23T12:06:31;96217.83;;;16.77;57.34
43480;BME280;29067;35.492;-97.520;2022-10-23T12:09:07;96226.43;;;16.13;59.09
43480;BME280;29067;35.492;-97.520;2022-10-23T12:11:47;96219.85;;;17.53;57.16
43480;BME280;29067;35.492;-97.520;2022-10-23T12:14:33;96219.88;;;17.39;56.37
43480;BME280;29067;35.492;-97.520;2022-10-23T12:17:02;96226.54;;;17.90;55.33
43480;BME280;29067;35.492;-97.520;2022-10-23T12:19:48;96225.70;;;17.73;55.74
43480;BME280;29067;35.492;-97.520;2022-10-23T12:22:16;96224.52;;;16.36;59.13
43480;BME280;29067;35.492;-97.520;2022-10-23T12:24:57;96229.59;;;16.29;59.68
43480;BME280;29067;35.492;-97.520;2022-10-23T12:27:31;96230.64;;;16.78;58.74
43480;BME280;29067;35.492;-97.520;2022-10-23T12:30:19;96229.38;;;17.20;58.07
43480;BME280;29067;35.492;-97.520;2022-10-23T12:33:11;96223.44;;;16.14;60.28
43480;BME280;29067;35.492;-97.520;2022-10-23T12:36:27;96226.36;;;17.49;59.25
43480;BME280;29067;35.492;-97.520;2022-10-23T12:39:01;96226.02;;;16.54;60.78
43480;BME280;29067;35.492;-97.520;2022-10-23T12:41:30;96224.31;;;16.80;60.09
43480;BME280;29067;35.492;-97.520;2022-10-23T12:44:02;96224.02;;;16.85;62.74
43480;BME280;29067;35.492;-97.520;2022-10-23T12:46:33;96216.44;;;17.34;59.30
43480;BME280;29067;35.492;-97.520;2022-10-23T12:49:12;96208.81;;;17.22;59.24
43480;BME280;29067;35.492;-97.520;2022-10-23T12:51:40;96220.38;;;17.43;59.88
43480;BME280;29067;35.492;-97.520;2022-10-23T12:54:15;96216.48;;;16.80;61.79
43480;BME280;29067;35.492;-97.520;2022-10-23T12:56:43;96219.91;;;16.49;62.87
43480;BME280;29067;35.492;-97.520;2022-10-23T12:59:15;96223.19;;;16.71;63.24
43480;BME280;29067;35.492;-97.520;2022-10-23T13:01:44;96220.75;;;16.43;63.73
43480;BME280;29067;35.492;-97.520;2022-10-23T13:04:18;96223.94;;;16.71;63.47
43480;BME280;29067;35.492;-97.520;2022-10-23T13:06:48;96224.29;;;17.97;60.31
43480;BME280;29067;35.492;-97.520;2022-10-23T13:09:22;96229.45;;;16.21;64.89